sensor_id;sensor_type;location;lat;lon;timestamp;P1;durP1;ratioP1;P2;durP2;ratioP2
9667;SDS011;4872;48.316;10.650;2023-05-07T04:06:08;5.97;;;5.47;;
9667;SDS011;4872;48.316;10.650;2023-05-07T04:08:35;6.10;;;5.50;;
9667;SDS011;4872;48.316;10.650;2023-05-07T04:11:02;5.73;;;5.13;;
9667;SDS011;4872;48.316;10.650;2023-05-07T04:13:29;6.33;;;5.20;;
9667;SDS011;4872;48.316;10.650;2023-05-07T04:15:56;5.63;;;5.00;;
9667;SDS011;4872;48.316;10.650;2023-05-07T04:18:23;6.03;;;5.43;;
9667;SDS011;4872;48.316;10.650;2023-05-07T04:20:50;6.10;;;5.50;;
9667;SDS011;4872;48.316;10.650;2023-05-07T04:23:18;5.77;;;5.27;;
9667;SDS011;4872;48.316;10.650;2023-05-07T04:25:45;5.70;;;5.13;;
9667;SDS011;4872;48.316;10.650;2023-05-07T04:28:12;5.97;;;5.23;;
9667;SDS011;4872;48.316;10.650;2023-05-07T04:30:39;5.70;;;4.80;;
9667;SDS011;4872;48.316;10.650;2023-05-07T04:33:06;5.57;;;4.67;;
9667;SDS011;4872;48.316;10.650;2023-05-07T04:35:33;7.73;;;4.97;;
9667;SDS011;4872;48.316;10.650;2023-05-07T04:38:00;5.63;;;5.13;;
9667;SDS011;4872;48.316;10.650;2023-05-07T04:40:28;6.03;;;4.70;;
9667;SDS011;4872;48.316;10.650;2023-05-07T04:42:55;5.43;;;4.93;;
9667;SDS011;4872;48.316;10.650;2023-05-07T04:45:22;6.37;;;5.30;;
9667;SDS011;4872;48.316;10.650;2023-05-07T04:47:49;5.33;;;4.93;;
9667;SDS011;4872;48.316;10.650;2023-05-07T04:50:16;5.03;;;4.63;;
9667;SDS011;4872;48.316;10.650;2023-05-07T04:52:44;5.70;;;5.17;;
9667;SDS011;4872;48.316;10.650;2023-05-07T04:55:11;6.00;;;5.10;;
9667;SDS011;4872;48.316;10.650;2023-05-07T04:57:39;5.17;;;4.77;;
9667;SDS011;4872;48.316;10.650;2023-05-07T05:00:06;6.73;;;4.77;;
9667;SDS011;4872;48.316;10.650;2023-05-07T05:02:35;5.57;;;5.10;;
9667;SDS011;4872;48.316;10.650;2023-05-07T05:05:01;6.10;;;5.23;;
9667;SDS011;4872;48.316;10.650;2023-05-07T05:07:28;5.70;;;5.17;;
9667;SDS011;4872;48.316;10.650;2023-05-07T05:09:56;7.67;;;5.57;;
9667;SDS011;4872;48.316;10.650;2023-05-07T05:12:23;6.83;;;5.83;;
9667;SDS011;4872;48.316;10.650;2023-05-07T05:14:51;6.17;;;5.57;;
9667;SDS011;4872;48.316;10.650;2023-05-07T05:17:18;6.27;;;5.53;;
9667;SDS011;4872;48.316;10.650;2023-05-07T05:19:45;6.13;;;5.50;;
9667;SDS011;4872;48.316;10.650;2023-05-07T05:22:11;6.60;;;5.90;;
9667;SDS011;4872;48.316;10.650;2023-05-07T05:24:38;6.43;;;5.80;;
9667;SDS011;4872;48.316;10.650;2023-05-07T05:27:05;7.33;;;6.60;;
9667;SDS011;4872;48.316;10.650;2023-05-07T05:29:32;7.10;;;6.50;;
9667;SDS011;4872;48.316;10.650;2023-05-07T05:32:00;7.27;;;6.57;;
9667;SDS011;4872;48.316;10.650;2023-05-07T05:34:26;7.17;;;6.57;;
9667;SDS011;4872;48.316;10.650;2023-05-07T05:36:53;7.67;;;6.97;;
9667;SDS011;4872;48.316;10.650;2023-05-07T05:39:20;6.80;;;6.10;;
9667;SDS011;4872;48.316;10.650;2023-05-07T05:41:48;7.33;;;6.67;;
9667;SDS011;4872;48.316;10.650;2023-05-07T05:44:15;7.97;;;7.17;;
9667;SDS011;4872;48.316;10.650;2023-05-07T05:46:41;7.17;;;6.57;;
9667;SDS011;4872;48.316;10.650;2023-05-07T05:49:10;8.23;;;6.77;;
9667;SDS011;4872;48.316;10.650;2023-05-07T05:51:36;7.73;;;7.03;;
9667;SDS011;4872;48.316;10.650;2023-05-07T05:54:03;10.60;;;7.10;;
9667;SDS011;4872;48.316;10.650;2023-05-07T05:56:30;7.30;;;6.60;;
9667;SDS011;4872;48.316;10.650;2023-05-07T05:58:57;6.87;;;6.10;;
9667;SDS011;4872;48.316;10.650;2023-05-07T06:01:23;7.50;;;6.80;;
9667;SDS011;4872;48.316;10.650;2023-05-07T06:03:50;6.53;;;5.97;;
9667;SDS011;4872;48.316;10.650;2023-05-07T06:06:19;7.40;;;6.70;;
9667;SDS011;4872;48.316;10.650;2023-05-07T06:08:46;8.30;;;7.50;;
9667;SDS011;4872;48.316;10.650;2023-05-07T06:11:12;7.17;;;6.47;;
9667;SDS011;4872;48.316;10.650;2023-05-07T06:13:39;6.23;;;5.73;;
9667;SDS011;4872;48.316;10.650;2023-05-07T06:16:06;7.87;;;7.07;;
9667;SDS011;4872;48.316;10.650;2023-05-07T06:18:33;11.77;;;7.00;;
9667;SDS011;4872;48.316;10.650;2023-05-07T06:21:01;10.47;;;7.77;;
9667;SDS011;4872;48.316;10.650;2023-05-07T06:23:29;9.53;;;7.80;;
9667;SDS011;4872;48.316;10.650;2023-05-07T06:25:55;9.20;;;7.63;;
9667;SDS011;4872;48.316;10.650;2023-05-07T06:28:22;7.80;;;7.10;;
9667;SDS011;4872;48.316;10.650;2023-05-07T06:30:49;8.93;;;8.03;;
9667;SDS011;4872;48.316;10.650;2023-05-07T06:33:16;8.20;;;7.37;;
9667;SDS011;4872;48.316;10.650;2023-05-07T06:35:42;20.30;;;8.10;;
9667;SDS011;4872;48.316;10.650;2023-05-07T06:38:09;8.37;;;7.50;;
9667;SDS011;4872;48.316;10.650;2023-05-07T06:40:38;8.47;;;7.67;;
9667;SDS011;4872;48.316;10.650;2023-05-07T06:43:05;9.10;;;8.03;;
9667;SDS011;4872;48.316;10.650;2023-05-07T06:45:32;9.57;;;8.07;;
9667;SDS011;4872;48.316;10.650;2023-05-07T06:47:58;9.20;;;7.80;;
9667;SDS011;4872;48.316;10.650;2023-05-07T06:50:25;9.13;;;7.90;;
9667;SDS011;4872;48.316;10.650;2023-05-07T06:52:52;8.87;;;7.50;;
9667;SDS011;4872;48.316;10.650;2023-05-07T06:55:19;10.53;;;8.93;;
9667;SDS011;4872;48.316;10.650;2023-05-07T06:57:47;8.43;;;7.63;;
9667;SDS011;4872;48.316;10.650;2023-05-07T07:00:14;9.03;;;8.17;;
9667;SDS011;4872;48.316;10.650;2023-05-07T07:02:41;8.63;;;7.17;;
9667;SDS011;4872;48.316;10.650;2023-05-07T07:05:08;9.60;;;7.83;;
9667;SDS011;4872;48.316;10.650;2023-05-07T07:07:35;9.93;;;7.73;;
9667;SDS011;4872;48.316;10.650;2023-05-07T07:10:02;8.17;;;7.47;;
9667;SDS011;4872;48.316;10.650;2023-05-07T07:12:29;7.97;;;7.27;;
9667;SDS011;4872;48.316;10.650;2023-05-07T07:14:57;7.80;;;7.10;;
9667;SDS011;4872;48.316;10.650;2023-05-07T07:17:24;7.50;;;6.87;;
9667;SDS011;4872;48.316;10.650;2023-05-07T07:19:51;8.63;;;7.50;;
9667;SDS011;4872;48.316;10.650;2023-05-07T07:22:18;8.10;;;7.30;;
9667;SDS011;4872;48.316;10.650;2023-05-07T07:24:44;8.73;;;7.77;;
9667;SDS011;4872;48.316;10.650;2023-05-07T07:27:11;9.40;;;8.00;;
9667;SDS011;4872;48.316;10.650;2023-05-07T07:29:38;7.87;;;7.17;;
9667;SDS011;4872;48.316;10.650;2023-05-07T07:32:06;8.00;;;7.20;;
9667;SDS011;4872;48.316;10.650;2023-05-07T07:34:32;8.80;;;7.33;;
9667;SDS011;4872;48.316;10.650;2023-05-07T07:36:59;7.87;;;7.07;;
9667;SDS011;4872;48.316;10.650;2023-05-07T07:39:30;9.73;;;7.40;;
9667;SDS011;4872;48.316;10.650;2023-05-07T07:41:57;7.47;;;6.67;;
9667;SDS011;4872;48.316;10.650;2023-05-07T07:44:23;9.37;;;7.70;;
9667;SDS011;4872;48.316;10.650;2023-05-07T07:46:50;7.50;;;6.80;;
9667;SDS011;4872;48.316;10.650;2023-05-07T07:49:18;8.37;;;7.03;;
9667;SDS011;4872;48.316;10.650;2023-05-07T07:51:45;7.43;;;6.73;;
9667;SDS011;4872;48.316;10.650;2023-05-07T07:54:12;6.90;;;6.30;;
9667;SDS011;4872;48.316;10.650;2023-05-07T07:56:38;6.97;;;6.27;;
9667;SDS011;4872;48.316;10.650;2023-05-07T07:59:05;6.63;;;5.83;;
9667;SDS011;4872;48.316;10.650;2023-05-07T08:01:32;5.37;;;4.30;;
9667;SDS011;4872;48.316;10.650;2023-05-07T08:03:58;5.87;;;4.83;;
9667;SDS011;4872;48.316;10.650;2023-05-07T08:06:29;5.67;;;5.13;;
9667;SDS011;4872;48.316;10.650;2023-05-07T08:08:56;4.50;;;4.20;;
9667;SDS011;4872;48.316;10.650;2023-05-07T08:11:22;5.03;;;4.53;;
9667;SDS011;4872;48.316;10.650;2023-05-07T08:13:50;6.20;;;4.33;;
9667;SDS011;4872;48.316;10.650;2023-05-07T08:16:17;4.60;;;4.17;;
9667;SDS011;4872;48.316;10.650;2023-05-07T08:18:43;5.57;;;4.40;;
9667;SDS011;4872;48.316;10.650;2023-05-07T08:21:10;4.70;;;4.30;;
9667;SDS011;4872;48.316;10.650;2023-05-07T08:23:38;5.60;;;5.10;;
9667;SDS011;4872;48.316;10.650;2023-05-07T08:26:05;4.33;;;3.93;;
9667;SDS011;4872;48.316;10.650;2023-05-07T08:28:33;4.60;;;4.20;;
9667;SDS011;4872;48.316;10.650;2023-05-07T08:30:59;4.50;;;4.10;;
9667;SDS011;4872;48.316;10.650;2023-05-07T08:33:26;3.90;;;3.60;;
9667;SDS011;4872;48.316;10.650;2023-05-07T08:35:53;6.53;;;4.03;;
9667;SDS011;4872;48.316;10.650;2023-05-07T08:38:20;4.73;;;4.33;;
9667;SDS011;4872;48.316;10.650;2023-05-07T08:40:48;5.57;;;3.90;;
9667;SDS011;4872;48.316;10.650;2023-05-07T08:43:14;5.70;;;3.73;;
9667;SDS011;4872;48.316;10.650;2023-05-07T08:45:42;5.43;;;4.13;;
9667;SDS011;4872;48.316;10.650;2023-05-07T08:48:14;4.70;;;3.80;;
9667;SDS011;4872;48.316;10.650;2023-05-07T08:50:42;4.30;;;3.83;;
9667;SDS011;4872;48.316;10.650;2023-05-07T08:53:08;4.10;;;3.70;;
9667;SDS011;4872;48.316;10.650;2023-05-07T08:55:35;5.97;;;4.27;;
9667;SDS011;4872;48.316;10.650;2023-05-07T08:58:03;4.87;;;4.27;;
9667;SDS011;4872;48.316;10.650;2023-05-07T09:00:30;6.30;;;4.90;;
9667;SDS011;4872;48.316;10.650;2023-05-07T09:02:56;5.13;;;4.40;;
9667;SDS011;4872;48.316;10.650;2023-05-07T09:05:23;6.03;;;4.63;;
9667;SDS011;4872;48.316;10.650;2023-05-07T09:07:50;5.20;;;4.77;;
9667;SDS011;4872;48.316;10.650;2023-05-07T09:10:17;4.37;;;3.97;;
9667;SDS011;4872;48.316;10.650;2023-05-07T09:12:43;5.30;;;4.47;;
9667;SDS011;4872;48.316;10.650;2023-05-07T09:15:14;6.37;;;3.67;;
9667;SDS011;4872;48.316;10.650;2023-05-07T09:17:41;4.90;;;4.17;;
9667;SDS011;4872;48.316;10.650;2023-05-07T09:20:09;7.90;;;7.17;;
9667;SDS011;4872;48.316;10.650;2023-05-07T09:22:36;6.70;;;6.10;;
9667;SDS011;4872;48.316;10.650;2023-05-07T09:25:03;8.87;;;7.43;;
9667;SDS011;4872;48.316;10.650;2023-05-07T09:27:31;5.87;;;5.33;;
9667;SDS011;4872;48.316;10.650;2023-05-07T09:29:57;4.67;;;4.00;;
9667;SDS011;4872;48.316;10.650;2023-05-07T09:32:26;6.10;;;5.07;;
9667;SDS011;4872;48.316;10.650;2023-05-07T09:34:53;5.43;;;4.93;;
9667;SDS011;4872;48.316;10.650;2023-05-07T09:37:20;5.43;;;4.20;;
9667;SDS011;4872;48.316;10.650;2023-05-07T09:39:47;4.47;;;3.37;;
9667;SDS011;4872;48.316;10.650;2023-05-07T09:42:14;4.30;;;3.60;;
9667;SDS011;4872;48.316;10.650;2023-05-07T09:44:41;3.60;;;3.30;;
9667;SDS011;4872;48.316;10.650;2023-05-07T09:47:09;3.50;;;3.20;;
9667;SDS011;4872;48.316;10.650;2023-05-07T09:49:39;3.20;;;2.90;;
9667;SDS011;4872;48.316;10.650;2023-05-07T09:52:07;3.97;;;3.27;;
9667;SDS011;4872;48.316;10.650;2023-05-07T09:54:35;3.20;;;2.90;;
9667;SDS011;4872;48.316;10.650;2023-05-07T09:57:03;4.87;;;4.40;;
9667;SDS011;4872;48.316;10.650;2023-05-07T09:59:32;3.33;;;2.87;;
9667;SDS011;4872;48.316;10.650;2023-05-07T10:01:59;2.60;;;2.40;;
9667;SDS011;4872;48.316;10.650;2023-05-07T10:04:27;2.60;;;2.40;;
9667;SDS011;4872;48.316;10.650;2023-05-07T10:06:55;3.57;;;2.80;;
9667;SDS011;4872;48.316;10.650;2023-05-07T10:09:23;3.77;;;2.50;;
9667;SDS011;4872;48.316;10.650;2023-05-07T10:11:51;2.77;;;2.50;;
9667;SDS011;4872;48.316;10.650;2023-05-07T10:14:19;2.60;;;2.40;;
9667;SDS011;4872;48.316;10.650;2023-05-07T10:16:47;3.17;;;2.47;;
9667;SDS011;4872;48.316;10.650;2023-05-07T10:19:14;5.00;;;2.10;;
9667;SDS011;4872;48.316;10.650;2023-05-07T10:21:43;2.70;;;2.20;;
9667;SDS011;4872;48.316;10.650;2023-05-07T10:24:16;1.90;;;1.80;;
9667;SDS011;4872;48.316;10.650;2023-05-07T10:26:48;2.23;;;2.00;;
9667;SDS011;4872;48.316;10.650;2023-05-07T10:29:18;3.37;;;1.80;;
9667;SDS011;4872;48.316;10.650;2023-05-07T10:31:53;2.10;;;2.00;;
9667;SDS011;4872;48.316;10.650;2023-05-07T10:34:27;4.50;;;2.47;;
9667;SDS011;4872;48.316;10.650;2023-05-07T10:36:58;3.00;;;2.00;;
9667;SDS011;4872;48.316;10.650;2023-05-07T10:39:27;1.87;;;1.63;;
9667;SDS011;4872;48.316;10.650;2023-05-07T10:41:54;2.53;;;1.73;;
9667;SDS011;4872;48.316;10.650;2023-05-07T10:44:24;2.10;;;1.90;;
9667;SDS011;4872;48.316;10.650;2023-05-07T10:47:08;2.50;;;2.30;;
9667;SDS011;4872;48.316;10.650;2023-05-07T10:49:36;2.43;;;2.10;;
9667;SDS011;4872;48.316;10.650;2023-05-07T10:52:23;3.13;;;2.10;;
9667;SDS011;4872;48.316;10.650;2023-05-07T10:55:19;3.07;;;2.40;;
9667;SDS011;4872;48.316;10.650;2023-05-07T10:57:47;2.27;;;1.90;;
9667;SDS011;4872;48.316;10.650;2023-05-07T11:03:09;3.77;;;2.23;;
9667;SDS011;4872;48.316;10.650;2023-05-07T11:05:36;2.40;;;1.80;;
9667;SDS011;4872;48.316;10.650;2023-05-07T11:08:04;1.90;;;1.80;;
9667;SDS011;4872;48.316;10.650;2023-05-07T11:10:48;2.47;;;2.00;;
9667;SDS011;4872;48.316;10.650;2023-05-07T11:13:17;2.40;;;1.80;;
9667;SDS011;4872;48.316;10.650;2023-05-07T11:15:44;2.33;;;1.67;;
9667;SDS011;4872;48.316;10.650;2023-05-07T11:18:13;3.40;;;2.03;;
9667;SDS011;4872;48.316;10.650;2023-05-07T11:20:50;2.20;;;1.90;;
9667;SDS011;4872;48.316;10.650;2023-05-07T11:26:25;1.93;;;1.80;;
9667;SDS011;4872;48.316;10.650;2023-05-07T11:28:53;2.20;;;1.77;;
9667;SDS011;4872;48.316;10.650;2023-05-07T11:31:20;2.43;;;1.60;;
9667;SDS011;4872;48.316;10.650;2023-05-07T11:33:49;1.60;;;1.50;;
9667;SDS011;4872;48.316;10.650;2023-05-07T11:36:16;1.50;;;1.40;;
9667;SDS011;4872;48.316;10.650;2023-05-07T11:38:44;1.70;;;1.57;;
9667;SDS011;4872;48.316;10.650;2023-05-07T11:41:11;2.43;;;1.70;;
9667;SDS011;4872;48.316;10.650;2023-05-07T11:43:40;1.60;;;1.50;;
9667;SDS011;4872;48.316;10.650;2023-05-07T11:46:20;2.10;;;1.60;;
9667;SDS011;4872;48.316;10.650;2023-05-07T11:48:47;1.70;;;1.60;;
9667;SDS011;4872;48.316;10.650;2023-05-07T11:51:18;2.83;;;1.67;;
9667;SDS011;4872;48.316;10.650;2023-05-07T11:53:45;1.60;;;1.50;;
9667;SDS011;4872;48.316;10.650;2023-05-07T11:56:12;1.80;;;1.70;;
9667;SDS011;4872;48.316;10.650;2023-05-07T11:58:42;1.90;;;1.33;;
9667;SDS011;4872;48.316;10.650;2023-05-07T12:01:10;1.90;;;1.77;;
9667;SDS011;4872;48.316;10.650;2023-05-07T12:03:40;2.00;;;1.67;;
9667;SDS011;4872;48.316;10.650;2023-05-07T12:06:08;1.93;;;1.60;;
9667;SDS011;4872;48.316;10.650;2023-05-07T12:08:36;2.13;;;1.50;;
9667;SDS011;4872;48.316;10.650;2023-05-07T12:11:06;3.13;;;2.00;;
9667;SDS011;4872;48.316;10.650;2023-05-07T12:13:33;2.07;;;1.77;;
9667;SDS011;4872;48.316;10.650;2023-05-07T12:16:01;2.10;;;1.60;;
9667;SDS011;4872;48.316;10.650;2023-05-07T12:18:29;1.77;;;1.30;;
9667;SDS011;4872;48.316;10.650;2023-05-07T12:20:56;1.73;;;1.50;;
9667;SDS011;4872;48.316;10.650;2023-05-07T12:23:25;1.90;;;1.80;;
9667;SDS011;4872;48.316;10.650;2023-05-07T12:25:52;2.03;;;1.60;;
9667;SDS011;4872;48.316;10.650;2023-05-07T12:28:19;2.70;;;2.17;;
9667;SDS011;4872;48.316;10.650;2023-05-07T12:30:47;1.90;;;1.70;;
9667;SDS011;4872;48.316;10.650;2023-05-07T12:33:17;2.60;;;1.80;;
9667;SDS011;4872;48.316;10.650;2023-05-07T12:35:47;2.73;;;1.70;;
9667;SDS011;4872;48.316;10.650;2023-05-07T12:38:15;3.00;;;1.80;;
9667;SDS011;4872;48.316;10.650;2023-05-07T12:40:44;1.73;;;1.60;;
9667;SDS011;4872;48.316;10.650;2023-05-07T12:43:15;2.10;;;1.90;;
9667;SDS011;4872;48.316;10.650;2023-05-07T12:45:42;2.40;;;1.70;;
9667;SDS011;4872;48.316;10.650;2023-05-07T12:48:10;1.67;;;1.57;;
9667;SDS011;4872;48.316;10.650;2023-05-07T12:50:38;1.73;;;1.30;;
9667;SDS011;4872;48.316;10.650;2023-05-07T12:53:05;2.37;;;1.80;;
9667;SDS011;4872;48.316;10.650;2023-05-07T12:55:39;2.33;;;1.70;;
9667;SDS011;4872;48.316;10.650;2023-05-07T12:58:07;3.30;;;1.90;;
9667;SDS011;4872;48.316;10.650;2023-05-07T13:00:40;1.63;;;1.50;;
9667;SDS011;4872;48.316;10.650;2023-05-07T13:03:08;1.83;;;1.60;;
9667;SDS011;4872;48.316;10.650;2023-05-07T13:05:35;2.00;;;1.77;;
9667;SDS011;4872;48.316;10.650;2023-05-07T13:08:04;2.27;;;1.70;;
9667;SDS011;4872;48.316;10.650;2023-05-07T13:10:30;1.60;;;1.50;;
9667;SDS011;4872;48.316;10.650;2023-05-07T13:12:57;2.30;;;2.00;;
9667;SDS011;4872;48.316;10.650;2023-05-07T13:15:24;1.67;;;1.30;;
9667;SDS011;4872;48.316;10.650;2023-05-07T13:17:52;1.67;;;1.57;;
9667;SDS011;4872;48.316;10.650;2023-05-07T13:20:18;1.70;;;1.60;;
9667;SDS011;4872;48.316;10.650;2023-05-07T13:22:46;2.93;;;1.63;;
9667;SDS011;4872;48.316;10.650;2023-05-07T13:25:13;1.80;;;1.70;;
9667;SDS011;4872;48.316;10.650;2023-05-07T13:27:40;1.57;;;1.47;;
9667;SDS011;4872;48.316;10.650;2023-05-07T13:30:07;2.00;;;1.80;;
9667;SDS011;4872;48.316;10.650;2023-05-07T13:32:34;2.10;;;1.50;;
9667;SDS011;4872;48.316;10.650;2023-05-07T13:35:01;2.27;;;1.80;;
9667;SDS011;4872;48.316;10.650;2023-05-07T13:37:28;3.10;;;1.87;;
9667;SDS011;4872;48.316;10.650;2023-05-07T13:39:56;1.73;;;1.60;;
9667;SDS011;4872;48.316;10.650;2023-05-07T13:42:23;2.27;;;1.70;;
9667;SDS011;4872;48.316;10.650;2023-05-07T13:44:49;2.50;;;1.80;;
9667;SDS011;4872;48.316;10.650;2023-05-07T13:47:16;1.57;;;1.40;;
9667;SDS011;4872;48.316;10.650;2023-05-07T13:49:43;2.30;;;1.87;;
9667;SDS011;4872;48.316;10.650;2023-05-07T13:52:09;2.57;;;1.63;;
9667;SDS011;4872;48.316;10.650;2023-05-07T13:54:36;1.93;;;1.47;;
9667;SDS011;4872;48.316;10.650;2023-05-07T13:57:04;2.37;;;2.03;;
9667;SDS011;4872;48.316;10.650;2023-05-07T13:59:31;2.77;;;1.60;;
9667;SDS011;4872;48.316;10.650;2023-05-07T14:01:58;1.93;;;1.60;;
9667;SDS011;4872;48.316;10.650;2023-05-07T14:04:25;2.30;;;1.97;;
9667;SDS011;4872;48.316;10.650;2023-05-07T14:06:52;1.77;;;1.63;;
9667;SDS011;4872;48.316;10.650;2023-05-07T14:09:18;2.50;;;1.80;;
9667;SDS011;4872;48.316;10.650;2023-05-07T14:11:45;1.90;;;1.60;;
9667;SDS011;4872;48.316;10.650;2023-05-07T14:14:13;1.90;;;1.80;;
9667;SDS011;4872;48.316;10.650;2023-05-07T14:16:40;3.57;;;2.10;;
9667;SDS011;4872;48.316;10.650;2023-05-07T14:19:07;2.57;;;1.60;;
9667;SDS011;4872;48.316;10.650;2023-05-07T14:21:34;2.60;;;1.70;;
9667;SDS011;4872;48.316;10.650;2023-05-07T14:24:00;2.67;;;1.80;;
9667;SDS011;4872;48.316;10.650;2023-05-07T14:26:27;2.03;;;1.83;;
9667;SDS011;4872;48.316;10.650;2023-05-07T14:28:54;3.00;;;1.60;;
9667;SDS011;4872;48.316;10.650;2023-05-07T14:31:24;2.47;;;1.77;;
9667;SDS011;4872;48.316;10.650;2023-05-07T14:33:51;3.07;;;1.83;;
9667;SDS011;4872;48.316;10.650;2023-05-07T14:36:18;1.83;;;1.43;;
9667;SDS011;4872;48.316;10.650;2023-05-07T14:38:47;2.10;;;1.70;;
9667;SDS011;4872;48.316;10.650;2023-05-07T14:41:14;2.03;;;1.93;;
9667;SDS011;4872;48.316;10.650;2023-05-07T14:43:41;2.47;;;1.97;;
9667;SDS011;4872;48.316;10.650;2023-05-07T14:46:08;3.83;;;2.10;;
9667;SDS011;4872;48.316;10.650;2023-05-07T14:48:36;2.60;;;1.90;;
9667;SDS011;4872;48.316;10.650;2023-05-07T14:51:03;3.27;;;2.30;;
9667;SDS011;4872;48.316;10.650;2023-05-07T14:53:31;2.80;;;2.17;;
9667;SDS011;4872;48.316;10.650;2023-05-07T14:55:58;3.53;;;2.03;;
9667;SDS011;4872;48.316;10.650;2023-05-07T14:58:25;1.80;;;1.70;;
9667;SDS011;4872;48.316;10.650;2023-05-07T15:00:52;2.53;;;2.00;;
9667;SDS011;4872;48.316;10.650;2023-05-07T15:03:18;1.90;;;1.80;;
9667;SDS011;4872;48.316;10.650;2023-05-07T15:05:48;2.73;;;1.83;;
9667;SDS011;4872;48.316;10.650;2023-05-07T15:08:16;1.83;;;1.67;;
9667;SDS011;4872;48.316;10.650;2023-05-07T15:10:43;2.00;;;1.90;;
9667;SDS011;4872;48.316;10.650;2023-05-07T15:13:10;1.90;;;1.80;;
9667;SDS011;4872;48.316;10.650;2023-05-07T15:15:37;2.40;;;1.80;;
9667;SDS011;4872;48.316;10.650;2023-05-07T15:18:05;2.50;;;2.30;;
9667;SDS011;4872;48.316;10.650;2023-05-07T15:20:32;3.27;;;1.73;;
9667;SDS011;4872;48.316;10.650;2023-05-07T15:23:00;2.67;;;2.00;;
9667;SDS011;4872;48.316;10.650;2023-05-07T15:25:27;6.03;;;2.40;;
9667;SDS011;4872;48.316;10.650;2023-05-07T15:27:56;1.87;;;1.77;;
9667;SDS011;4872;48.316;10.650;2023-05-07T15:30:22;2.27;;;1.97;;
9667;SDS011;4872;48.316;10.650;2023-05-07T15:32:50;2.47;;;2.07;;
9667;SDS011;4872;48.316;10.650;2023-05-07T15:35:17;2.17;;;1.97;;
9667;SDS011;4872;48.316;10.650;2023-05-07T15:37:46;2.47;;;2.27;;
9667;SDS011;4872;48.316;10.650;2023-05-07T15:40:15;3.23;;;2.20;;
9667;SDS011;4872;48.316;10.650;2023-05-07T15:42:45;2.97;;;2.10;;
9667;SDS011;4872;48.316;10.650;2023-05-07T15:45:12;2.63;;;2.20;;
9667;SDS011;4872;48.316;10.650;2023-05-07T15:47:39;2.47;;;2.33;;
9667;SDS011;4872;48.316;10.650;2023-05-07T15:50:06;2.30;;;2.20;;
9667;SDS011;4872;48.316;10.650;2023-05-07T15:52:33;2.77;;;2.53;;
9667;SDS011;4872;48.316;10.650;2023-05-07T15:55:00;2.70;;;2.50;;
9667;SDS011;4872;48.316;10.650;2023-05-07T15:57:28;2.70;;;2.50;;
9667;SDS011;4872;48.316;10.650;2023-05-07T15:59:56;3.37;;;2.20;;
9667;SDS011;4872;48.316;10.650;2023-05-07T16:02:23;3.07;;;2.70;;
9667;SDS011;4872;48.316;10.650;2023-05-07T16:04:49;3.37;;;2.70;;
9667;SDS011;4872;48.316;10.650;2023-05-07T16:07:16;3.50;;;3.00;;
9667;SDS011;4872;48.316;10.650;2023-05-07T16:09:44;2.83;;;2.50;;
9667;SDS011;4872;48.316;10.650;2023-05-07T16:12:11;3.23;;;2.60;;
9667;SDS011;4872;48.316;10.650;2023-05-07T16:14:39;3.10;;;2.70;;
9667;SDS011;4872;48.316;10.650;2023-05-07T16:17:06;3.03;;;2.83;;
9667;SDS011;4872;48.316;10.650;2023-05-07T16:19:33;3.50;;;2.83;;
9667;SDS011;4872;48.316;10.650;2023-05-07T16:22:00;3.80;;;3.17;;
9667;SDS011;4872;48.316;10.650;2023-05-07T16:24:26;3.33;;;3.00;;
9667;SDS011;4872;48.316;10.650;2023-05-07T16:26:53;3.10;;;2.90;;
9667;SDS011;4872;48.316;10.650;2023-05-07T16:29:20;5.63;;;2.83;;
9667;SDS011;4872;48.316;10.650;2023-05-07T16:31:48;2.60;;;2.40;;
9667;SDS011;4872;48.316;10.650;2023-05-07T16:34:15;2.53;;;2.33;;
9667;SDS011;4872;48.316;10.650;2023-05-07T16:36:41;2.90;;;2.70;;
9667;SDS011;4872;48.316;10.650;2023-05-07T16:39:08;3.50;;;3.00;;
9667;SDS011;4872;48.316;10.650;2023-05-07T16:41:35;3.27;;;2.97;;
9667;SDS011;4872;48.316;10.650;2023-05-07T16:44:02;3.30;;;2.73;;
9667;SDS011;4872;48.316;10.650;2023-05-07T16:46:28;2.53;;;2.33;;
9667;SDS011;4872;48.316;10.650;2023-05-07T16:48:57;3.30;;;3.00;;
9667;SDS011;4872;48.316;10.650;2023-05-07T16:51:24;3.30;;;3.00;;
9667;SDS011;4872;48.316;10.650;2023-05-07T16:53:52;2.50;;;2.30;;
9667;SDS011;4872;48.316;10.650;2023-05-07T16:56:19;3.07;;;2.77;;
9667;SDS011;4872;48.316;10.650;2023-05-07T16:58:46;4.73;;;2.73;;
9667;SDS011;4872;48.316;10.650;2023-05-07T17:01:12;2.87;;;2.67;;
9667;SDS011;4872;48.316;10.650;2023-05-07T17:03:40;2.97;;;2.77;;
9667;SDS011;4872;48.316;10.650;2023-05-07T17:06:08;3.20;;;2.90;;
9667;SDS011;4872;48.316;10.650;2023-05-07T17:08:39;2.60;;;2.40;;
9667;SDS011;4872;48.316;10.650;2023-05-07T17:11:05;3.30;;;3.00;;
9667;SDS011;4872;48.316;10.650;2023-05-07T17:13:33;3.30;;;3.00;;
9667;SDS011;4872;48.316;10.650;2023-05-07T17:15:59;3.83;;;3.43;;
9667;SDS011;4872;48.316;10.650;2023-05-07T17:18:26;3.47;;;3.17;;
9667;SDS011;4872;48.316;10.650;2023-05-07T17:20:53;3.47;;;3.17;;
9667;SDS011;4872;48.316;10.650;2023-05-07T17:23:21;3.10;;;2.80;;
9667;SDS011;4872;48.316;10.650;2023-05-07T17:25:47;3.80;;;3.47;;
9667;SDS011;4872;48.316;10.650;2023-05-07T17:28:14;3.37;;;3.10;;
9667;SDS011;4872;48.316;10.650;2023-05-07T17:30:41;9.27;;;8.30;;
9667;SDS011;4872;48.316;10.650;2023-05-07T17:33:08;12.60;;;10.53;;
9667;SDS011;4872;48.316;10.650;2023-05-07T17:35:34;7.70;;;6.90;;
9667;SDS011;4872;48.316;10.650;2023-05-07T17:38:01;5.17;;;4.30;;
9667;SDS011;4872;48.316;10.650;2023-05-07T17:40:29;5.70;;;4.10;;
9667;SDS011;4872;48.316;10.650;2023-05-07T17:42:56;3.90;;;3.60;;
9667;SDS011;4872;48.316;10.650;2023-05-07T17:45:23;3.50;;;3.20;;
9667;SDS011;4872;48.316;10.650;2023-05-07T17:47:49;3.70;;;3.30;;
9667;SDS011;4872;48.316;10.650;2023-05-07T17:50:16;4.43;;;3.57;;
9667;SDS011;4872;48.316;10.650;2023-05-07T17:52:45;4.57;;;4.17;;
9667;SDS011;4872;48.316;10.650;2023-05-07T17:55:12;12.37;;;10.33;;
9667;SDS011;4872;48.316;10.650;2023-05-07T17:57:41;4.97;;;4.10;;
9667;SDS011;4872;48.316;10.650;2023-05-07T18:00:08;6.67;;;4.60;;
9667;SDS011;4872;48.316;10.650;2023-05-07T18:02:35;5.63;;;4.20;;
9667;SDS011;4872;48.316;10.650;2023-05-07T18:05:02;5.57;;;4.10;;
9667;SDS011;4872;48.316;10.650;2023-05-07T18:07:29;4.80;;;3.50;;
9667;SDS011;4872;48.316;10.650;2023-05-07T18:09:56;4.40;;;3.90;;
9667;SDS011;4872;48.316;10.650;2023-05-07T18:12:22;5.00;;;4.10;;
9667;SDS011;4872;48.316;10.650;2023-05-07T18:14:51;4.80;;;4.30;;
9667;SDS011;4872;48.316;10.650;2023-05-07T18:17:17;5.33;;;4.83;;
9667;SDS011;4872;48.316;10.650;2023-05-07T18:19:47;4.60;;;4.20;;
9667;SDS011;4872;48.316;10.650;2023-05-07T18:22:14;4.60;;;4.20;;
9667;SDS011;4872;48.316;10.650;2023-05-07T18:24:41;7.50;;;6.07;;
9667;SDS011;4872;48.316;10.650;2023-05-07T18:27:08;6.67;;;5.93;;
9667;SDS011;4872;48.316;10.650;2023-05-07T18:29:34;6.30;;;5.70;;
9667;SDS011;4872;48.316;10.650;2023-05-07T18:32:03;4.97;;;4.47;;
9667;SDS011;4872;48.316;10.650;2023-05-07T18:34:29;6.30;;;5.80;;
9667;SDS011;4872;48.316;10.650;2023-05-07T18:36:56;5.33;;;4.83;;
9667;SDS011;4872;48.316;10.650;2023-05-07T18:39:23;5.63;;;5.00;;
9667;SDS011;4872;48.316;10.650;2023-05-07T18:41:50;5.77;;;5.30;;
9667;SDS011;4872;48.316;10.650;2023-05-07T18:44:17;6.07;;;5.43;;
9667;SDS011;4872;48.316;10.650;2023-05-07T18:46:43;5.87;;;5.30;;
9667;SDS011;4872;48.316;10.650;2023-05-07T18:49:13;5.57;;;4.90;;
9667;SDS011;4872;48.316;10.650;2023-05-07T18:51:40;6.13;;;5.23;;
9667;SDS011;4872;48.316;10.650;2023-05-07T18:54:06;5.40;;;4.90;;
9667;SDS011;4872;48.316;10.650;2023-05-07T18:56:33;5.53;;;5.00;;
9667;SDS011;4872;48.316;10.650;2023-05-07T18:59:00;5.73;;;5.23;;
9667;SDS011;4872;48.316;10.650;2023-05-07T19:01:27;7.63;;;5.40;;
9667;SDS011;4872;48.316;10.650;2023-05-07T19:03:53;5.60;;;4.63;;
9667;SDS011;4872;48.316;10.650;2023-05-07T19:06:22;5.77;;;4.83;;
9667;SDS011;4872;48.316;10.650;2023-05-07T19:08:49;5.43;;;4.80;;
9667;SDS011;4872;48.316;10.650;2023-05-07T19:11:16;5.40;;;4.90;;
9667;SDS011;4872;48.316;10.650;2023-05-07T19:13:43;5.97;;;5.10;;